createdAt,value
2023-02-03T00:00:36.609Z,4.27
2023-02-03T00:03:26.484Z,4.43
2023-02-03T00:05:56.218Z,4.38
2023-02-03T00:08:27.322Z,6.22
2023-02-03T00:10:57.015Z,6.13
2023-02-03T00:13:27.039Z,6.47
2023-02-03T00:15:56.570Z,6.38
2023-02-03T00:18:26.231Z,5.35
2023-02-03T00:21:45.218Z,5.05
2023-02-03T00:24:16.418Z,6.93
2023-02-03T00:26:46.070Z,6.47
2023-02-03T00:29:15.694Z,5.30
2023-02-03T00:32:36.332Z,6.28
2023-02-03T00:35:09.933Z,5.97
2023-02-03T00:37:41.747Z,7.80
2023-02-03T00:40:17.850Z,7.72
2023-02-03T00:42:49.130Z,8.15
2023-02-03T00:45:21.726Z,7.45
2023-02-03T00:47:53.349Z,6.72
2023-02-03T00:50:25.122Z,6.82
2023-02-03T00:55:26.627Z,6.00
2023-02-03T00:57:56.052Z,6.57
2023-02-03T01:00:26.033Z,7.03
2023-02-03T01:02:55.494Z,7.95
2023-02-03T01:05:25.647Z,7.25
2023-02-03T01:07:55.130Z,6.97
2023-02-03T01:10:26.523Z,7.72
2023-02-03T01:12:56.069Z,7.70
2023-02-03T01:15:25.685Z,6.95
2023-02-03T01:17:55.004Z,7.20
2023-02-03T01:20:25.715Z,6.20
2023-02-03T01:22:55.432Z,7.23
2023-02-03T01:25:26.531Z,7.65
2023-02-03T01:27:55.839Z,7.95
2023-02-03T01:30:25.772Z,7.38
2023-02-03T01:32:55.263Z,7.75
2023-02-03T01:35:25.245Z,7.97
2023-02-03T01:37:54.702Z,9.07
2023-02-03T01:40:26.039Z,7.70
2023-02-03T01:42:55.576Z,7.60
2023-02-03T01:45:25.450Z,7.93
2023-02-03T01:47:57.135Z,8.93
2023-02-03T01:50:29.231Z,7.50
2023-02-03T01:53:01.975Z,8.07
2023-02-03T01:55:36.344Z,7.28
2023-02-03T01:58:09.089Z,7.75
2023-02-03T02:00:39.396Z,7.60
2023-02-03T02:03:10.659Z,3.95
2023-02-03T02:05:45.061Z,4.68
2023-02-03T02:08:16.581Z,4.55
2023-02-03T02:10:47.790Z,4.57
2023-02-03T02:13:19.405Z,4.80
2023-02-03T02:15:57.187Z,5.50
2023-02-03T02:18:36.779Z,5.18
2023-02-03T02:21:42.459Z,4.75
2023-02-03T02:24:54.780Z,6.65
2023-02-03T02:27:46.946Z,4.93
2023-02-03T02:30:40.160Z,4.38
2023-02-03T02:33:26.810Z,4.15
2023-02-03T02:36:05.008Z,4.50
2023-02-03T02:38:46.303Z,4.60
2023-02-03T02:41:21.258Z,4.18
2023-02-03T02:43:59.982Z,4.80
2023-02-03T02:46:35.015Z,4.32
2023-02-03T02:49:11.399Z,6.30
2023-02-03T02:51:44.113Z,4.45
2023-02-03T02:54:18.041Z,4.28
2023-02-03T02:56:53.713Z,4.18
2023-02-03T02:59:23.363Z,5.13
2023-02-03T03:01:52.872Z,4.68
2023-02-03T03:04:27.412Z,4.85
2023-02-03T03:07:00.928Z,4.38
2023-02-03T03:09:36.424Z,4.30
2023-02-03T03:12:09.267Z,4.40
2023-02-03T03:14:45.082Z,4.70
2023-02-03T03:17:20.026Z,4.32
2023-02-03T03:19:54.354Z,4.50
2023-02-03T03:22:28.813Z,4.78
2023-02-03T03:25:05.643Z,3.88
2023-02-03T03:27:40.153Z,4.13
2023-02-03T03:30:14.316Z,3.55
2023-02-03T03:32:43.834Z,3.72
2023-02-03T03:35:15.300Z,3.63
2023-02-03T03:37:47.107Z,3.92
2023-02-03T03:40:23.693Z,3.80
2023-02-03T03:42:57.738Z,3.53
2023-02-03T03:45:33.373Z,4.10
2023-02-03T03:48:07.782Z,3.67
2023-02-03T03:50:44.254Z,3.42
2023-02-03T03:53:15.387Z,3.55
2023-02-03T03:55:49.946Z,4.35
2023-02-03T03:58:22.681Z,4.07
2023-02-03T04:00:54.481Z,3.42
2023-02-03T04:03:27.042Z,3.97
2023-02-03T04:05:58.435Z,3.88
2023-02-03T04:10:57.703Z,3.60
2023-02-03T04:13:27.031Z,3.25
2023-02-03T04:15:56.760Z,3.22
2023-02-03T04:18:26.146Z,5.57
2023-02-03T04:20:55.843Z,3.40
2023-02-03T04:23:26.592Z,3.67
2023-02-03T04:28:25.292Z,3.05
2023-02-03T04:30:55.005Z,5.18
2023-02-03T04:33:24.311Z,4.13
2023-02-03T04:35:54.270Z,4.30
2023-02-03T04:38:23.664Z,4.55
2023-02-03T04:40:55.014Z,3.97
2023-02-03T04:43:24.444Z,4.50
2023-02-03T04:45:54.270Z,5.45
2023-02-03T04:48:23.592Z,4.22
2023-02-03T04:50:53.378Z,4.00
2023-02-03T04:53:22.883Z,5.85
2023-02-03T04:55:54.006Z,4.32
2023-02-03T04:58:23.326Z,4.28
2023-02-03T05:00:53.979Z,4.63
2023-02-03T05:03:26.148Z,4.85
2023-02-03T05:05:59.267Z,5.05
2023-02-03T05:11:01.870Z,4.53
2023-02-03T05:13:31.670Z,5.32
2023-02-03T05:16:01.664Z,4.22
2023-02-03T05:18:31.519Z,5.07
2023-02-03T05:21:01.664Z,5.37
2023-02-03T05:23:31.134Z,6.63
2023-02-03T05:26:03.035Z,4.72
2023-02-03T05:28:32.445Z,5.10
2023-02-03T05:31:02.917Z,6.20
2023-02-03T05:33:32.541Z,7.93
2023-02-03T05:36:02.899Z,5.57
2023-02-03T05:38:32.151Z,5.55
2023-02-03T05:41:20.723Z,5.22
2023-02-03T05:43:49.981Z,4.90
2023-02-03T05:46:20.077Z,6.70
2023-02-03T05:48:49.362Z,5.10
2023-02-03T05:51:19.052Z,7.25
2023-02-03T05:53:48.596Z,6.65
2023-02-03T05:56:19.759Z,5.72
2023-02-03T05:58:51.640Z,5.95
2023-02-03T06:01:21.507Z,5.45
2023-02-03T06:03:51.113Z,6.53
2023-02-03T06:06:20.984Z,7.10
2023-02-03T06:08:52.554Z,6.85
2023-02-03T06:11:24.535Z,7.88
2023-02-03T06:13:54.203Z,6.93
2023-02-03T06:16:25.154Z,7.43
2023-02-03T06:18:54.834Z,8.18
2023-02-03T06:21:24.826Z,8.45
2023-02-03T06:23:55.030Z,8.38
2023-02-03T06:26:26.947Z,9.00
2023-02-03T06:28:56.431Z,10.02
2023-02-03T06:31:26.310Z,9.85
2023-02-03T06:33:57.833Z,9.80
2023-02-03T06:36:27.995Z,11.50
2023-02-03T06:38:57.418Z,11.32
2023-02-03T06:41:30.892Z,9.90
2023-02-03T06:44:00.339Z,11.45
2023-02-03T06:46:30.877Z,11.85
2023-02-03T06:49:00.306Z,12.52
2023-02-03T06:51:29.933Z,12.02
2023-02-03T06:54:00.387Z,15.35
2023-02-03T06:56:31.773Z,14.57
2023-02-03T07:01:31.205Z,13.68
2023-02-03T07:04:00.614Z,15.37
2023-02-03T07:06:32.706Z,14.55
2023-02-03T07:09:03.721Z,12.65
2023-02-03T07:11:34.910Z,14.70
2023-02-03T07:14:04.395Z,14.18
2023-02-03T07:16:34.595Z,14.25
2023-02-03T07:19:04.051Z,12.60
2023-02-03T07:21:33.732Z,12.35
2023-02-03T07:24:03.883Z,13.30
2023-02-03T07:26:35.018Z,12.75
2023-02-03T07:29:04.548Z,11.93
2023-02-03T07:31:34.393Z,11.77
2023-02-03T07:34:03.750Z,11.77
2023-02-03T07:36:33.381Z,11.30
2023-02-03T07:39:02.650Z,10.32
2023-02-03T07:41:33.788Z,11.95
2023-02-03T07:44:03.073Z,10.35
2023-02-03T07:46:33.021Z,10.00
2023-02-03T07:49:04.832Z,11.95
2023-02-03T07:51:34.485Z,10.25
2023-02-03T07:54:03.845Z,12.35
2023-02-03T07:56:35.144Z,9.05
2023-02-03T07:59:04.680Z,10.95
2023-02-03T08:01:34.470Z,10.00
2023-02-03T08:04:05.665Z,10.23
2023-02-03T08:06:35.906Z,11.25
2023-02-03T08:09:05.400Z,10.48
2023-02-03T08:11:36.634Z,9.60
2023-02-03T08:14:06.463Z,9.75
2023-02-03T08:16:36.917Z,9.50
2023-02-03T08:19:06.295Z,9.07
2023-02-03T08:21:36.133Z,8.95
2023-02-03T08:24:06.110Z,8.05
2023-02-03T08:26:37.540Z,8.43
2023-02-03T08:29:08.079Z,8.73
2023-02-03T08:31:38.124Z,9.05
2023-02-03T08:34:07.418Z,9.75
2023-02-03T08:36:40.331Z,8.20
2023-02-03T08:39:09.894Z,7.72
2023-02-03T08:41:41.029Z,6.85
2023-02-03T08:44:10.307Z,8.57
2023-02-03T08:46:44.328Z,8.60
2023-02-03T08:49:14.021Z,8.43
2023-02-03T08:51:47.199Z,10.25
2023-02-03T08:54:17.157Z,9.60
2023-02-03T08:56:48.317Z,9.18
2023-02-03T08:59:17.803Z,8.45
2023-02-03T09:01:48.752Z,9.07
2023-02-03T09:04:19.956Z,10.55
2023-02-03T09:06:49.988Z,10.32
2023-02-03T09:09:19.582Z,9.70
2023-02-03T09:11:50.695Z,9.48
2023-02-03T09:14:20.105Z,9.63
2023-02-03T09:16:49.795Z,8.93
2023-02-03T09:19:19.321Z,9.20
2023-02-03T09:21:49.845Z,9.63
2023-02-03T09:24:19.863Z,8.95
2023-02-03T09:26:51.457Z,10.95
2023-02-03T09:29:20.856Z,11.65
2023-02-03T09:31:53.173Z,10.35
2023-02-03T09:34:27.739Z,11.23
2023-02-03T09:36:58.258Z,12.35
2023-02-03T09:39:27.564Z,11.13
2023-02-03T09:42:25.518Z,10.80
2023-02-03T09:45:07.913Z,11.85
2023-02-03T09:47:40.805Z,10.35
2023-02-03T09:50:15.976Z,11.48
2023-02-03T09:52:45.877Z,12.00
2023-02-03T09:55:35.653Z,11.68
2023-02-03T09:58:12.635Z,12.82
2023-02-03T10:00:45.278Z,13.88
2023-02-03T10:03:30.104Z,13.27
2023-02-03T10:06:21.135Z,11.73
2023-02-03T10:09:07.854Z,13.30
2023-02-03T10:11:55.951Z,14.25
2023-02-03T10:14:44.769Z,13.27
2023-02-03T10:17:31.555Z,11.95
2023-02-03T10:20:06.670Z,12.57
2023-02-03T10:22:43.544Z,13.57
2023-02-03T10:25:25.241Z,11.77
2023-02-03T10:27:57.205Z,13.52
2023-02-03T10:30:30.150Z,15.23
2023-02-03T10:33:04.326Z,15.45
2023-02-03T10:35:41.203Z,13.55
2023-02-03T10:38:17.319Z,13.82
2023-02-03T10:40:47.111Z,16.40
2023-02-03T10:43:33.656Z,16.75
2023-02-03T10:46:04.998Z,17.90
2023-02-03T10:51:04.577Z,18.35
2023-02-03T10:53:36.512Z,19.73
2023-02-03T10:56:10.453Z,20.58
2023-02-03T10:58:41.753Z,21.55
2023-02-03T11:01:17.382Z,21.73
2023-02-03T11:03:55.783Z,23.25
2023-02-03T11:06:25.563Z,26.65
2023-02-03T11:08:55.367Z,25.63
2023-02-03T11:11:27.725Z,22.67
2023-02-03T11:14:11.818Z,21.38
2023-02-03T11:16:44.504Z,20.88
2023-02-03T11:19:19.473Z,23.25
2023-02-03T11:21:52.887Z,21.17
2023-02-03T11:24:24.366Z,25.02
2023-02-03T11:26:58.288Z,23.52
2023-02-03T11:29:29.822Z,25.80
2023-02-03T11:32:05.191Z,21.83
2023-02-03T11:34:37.136Z,23.90
2023-02-03T11:37:29.017Z,23.30
2023-02-03T11:39:59.403Z,25.58
2023-02-03T11:42:29.228Z,24.40
2023-02-03T11:45:16.104Z,24.25
2023-02-03T11:47:54.237Z,23.00
2023-02-03T11:50:31.465Z,22.48
2023-02-03T11:53:16.949Z,23.83
2023-02-03T11:55:57.649Z,25.33
2023-02-03T12:01:27.133Z,23.35
2023-02-03T12:04:28.136Z,24.55
2023-02-03T12:07:13.670Z,28.52
2023-02-03T12:09:55.124Z,25.42
2023-02-03T12:12:45.693Z,25.63
2023-02-03T12:15:30.264Z,24.38
2023-02-03T12:18:12.218Z,30.50
2023-02-03T12:21:04.500Z,27.80
2023-02-03T12:23:45.567Z,26.58
2023-02-03T12:26:22.481Z,27.63
2023-02-03T12:29:01.800Z,29.58
2023-02-03T12:31:38.563Z,30.58
2023-02-03T12:34:17.889Z,30.70
2023-02-03T12:36:56.268Z,29.92
2023-02-03T12:39:32.710Z,29.80
2023-02-03T12:42:06.807Z,34.80
2023-02-03T12:44:45.274Z,32.85
2023-02-03T12:47:19.772Z,31.60
2023-02-03T12:49:53.935Z,36.65
2023-02-03T12:52:30.480Z,31.45
2023-02-03T12:55:10.149Z,32.17
2023-02-03T12:57:43.483Z,36.53
2023-02-03T13:00:36.529Z,31.35
2023-02-03T13:03:16.669Z,30.40
2023-02-03T13:05:51.935Z,32.47
2023-02-03T13:08:31.733Z,33.42
2023-02-03T13:11:14.411Z,31.08
2023-02-03T13:13:49.972Z,29.60
2023-02-03T13:16:23.202Z,29.50
2023-02-03T13:19:00.052Z,31.30
2023-02-03T13:21:29.554Z,31.05
2023-02-03T13:24:01.027Z,30.13
2023-02-03T13:27:03.291Z,27.20
2023-02-03T13:29:47.977Z,27.70
2023-02-03T13:32:30.550Z,26.95
2023-02-03T13:35:24.856Z,24.65
2023-02-03T13:38:15.067Z,25.00
2023-02-03T13:40:58.535Z,24.60
2023-02-03T13:43:38.271Z,26.40
2023-02-03T13:46:19.849Z,24.98
2023-02-03T13:48:49.738Z,28.90
2023-02-03T13:51:22.690Z,23.30
2023-02-03T13:53:53.951Z,24.88
2023-02-03T13:56:28.872Z,23.67
2023-02-03T13:59:03.878Z,24.40
2023-02-03T14:01:38.917Z,25.73
2023-02-03T14:04:12.119Z,25.75
2023-02-03T14:07:01.713Z,26.20
2023-02-03T14:09:39.537Z,25.65
2023-02-03T14:12:34.680Z,28.55
2023-02-03T14:15:21.356Z,29.88
2023-02-03T14:18:12.562Z,30.95
2023-02-03T14:20:48.232Z,34.28
2023-02-03T14:23:24.267Z,31.80
2023-02-03T14:25:56.842Z,38.35
2023-02-03T14:28:32.650Z,34.95
2023-02-03T14:31:12.966Z,37.97
2023-02-03T14:36:46.105Z,37.75
2023-02-03T14:39:57.766Z,42.47
2023-02-03T14:43:10.021Z,40.03
2023-02-03T14:46:10.626Z,37.75
2023-02-03T14:48:53.865Z,41.30
2023-02-03T14:51:39.654Z,37.53
2023-02-03T14:54:23.392Z,33.28
2023-02-03T14:57:19.854Z,35.20
2023-02-03T14:59:51.861Z,40.70
2023-02-03T15:02:26.150Z,35.50
2023-02-03T15:05:30.858Z,35.70
2023-02-03T15:08:02.833Z,34.03
2023-02-03T15:10:44.409Z,36.63
2023-02-03T15:13:27.539Z,36.78
2023-02-03T15:15:59.327Z,34.75
2023-02-03T15:18:36.126Z,33.03
2023-02-03T15:21:06.229Z,32.97
2023-02-03T15:23:43.459Z,33.92
2023-02-03T15:26:15.649Z,35.33
2023-02-03T15:28:45.401Z,31.13
2023-02-03T15:31:20.689Z,33.80
2023-02-03T15:33:54.265Z,31.05
2023-02-03T15:36:27.751Z,34.08
2023-02-03T15:39:07.396Z,31.63
2023-02-03T15:41:37.811Z,33.53
2023-02-03T15:44:14.531Z,31.83
2023-02-03T15:46:49.432Z,33.13
2023-02-03T15:49:26.375Z,32.10
2023-02-03T15:51:59.182Z,34.55
2023-02-03T15:54:33.259Z,30.27
2023-02-03T15:57:06.846Z,31.55
2023-02-03T15:59:39.414Z,28.35
2023-02-03T16:02:17.944Z,30.75
2023-02-03T16:04:50.516Z,33.90
2023-02-03T16:07:23.536Z,31.17
2023-02-03T16:09:55.182Z,27.83
2023-02-03T16:12:26.555Z,27.75
2023-02-03T16:14:58.676Z,27.52
2023-02-03T16:17:30.389Z,24.17
2023-02-03T16:20:29.844Z,25.48
2023-02-03T16:23:05.748Z,25.67
2023-02-03T16:25:36.708Z,24.00
2023-02-03T16:28:34.878Z,23.50
2023-02-03T16:31:29.997Z,22.05
2023-02-03T16:34:16.888Z,22.10
2023-02-03T16:37:05.552Z,22.00
2023-02-03T16:39:52.275Z,22.15
2023-02-03T16:42:40.794Z,21.80
2023-02-03T16:45:33.356Z,21.15
2023-02-03T16:48:21.585Z,18.95
2023-02-03T16:50:59.484Z,20.67
2023-02-03T16:53:32.593Z,18.40
2023-02-03T16:56:04.662Z,20.80
2023-02-03T16:58:37.290Z,20.52
2023-02-03T17:01:08.189Z,22.55
2023-02-03T17:03:38.728Z,17.85
2023-02-03T17:06:11.334Z,16.73
2023-02-03T17:08:43.522Z,15.35
2023-02-03T17:11:16.877Z,15.75
2023-02-03T17:13:46.903Z,15.68
2023-02-03T17:16:18.466Z,15.05
2023-02-03T17:18:50.762Z,14.23
2023-02-03T17:21:23.009Z,14.70
2023-02-03T17:23:55.433Z,15.00
2023-02-03T17:26:24.690Z,15.10
2023-02-03T17:28:54.389Z,15.95
2023-02-03T17:31:23.870Z,14.80
2023-02-03T17:33:54.098Z,14.73
2023-02-03T17:36:24.219Z,13.67
2023-02-03T17:55:39.270Z,12.70
2023-02-03T17:58:09.472Z,13.52
2023-02-03T18:00:39.995Z,12.23
2023-02-03T18:03:09.264Z,12.53
2023-02-03T18:05:39.770Z,12.23
2023-02-03T18:08:16.415Z,13.93
2023-02-03T18:10:47.863Z,13.32
2023-02-03T18:13:18.198Z,11.55
2023-02-03T18:15:48.054Z,15.90
2023-02-03T18:18:17.332Z,13.88
2023-02-03T18:20:46.943Z,15.20
2023-02-03T18:23:17.037Z,15.65
2023-02-03T18:25:54.324Z,14.32
2023-02-03T18:28:24.954Z,16.60
2023-02-03T18:31:00.217Z,16.27
2023-02-03T18:33:30.139Z,15.73
2023-02-03T18:36:03.979Z,16.88
2023-02-03T18:38:35.367Z,17.15
2023-02-03T18:41:09.389Z,16.35
2023-02-03T18:43:39.016Z,17.40
2023-02-03T18:46:10.108Z,16.88
2023-02-03T18:48:39.660Z,16.05
2023-02-03T18:51:13.924Z,15.93
2023-02-03T18:53:45.388Z,15.35
2023-02-03T18:56:19.974Z,17.13
2023-02-03T18:58:49.929Z,17.80
2023-02-03T19:01:24.896Z,14.50
2023-02-03T19:03:55.609Z,16.83
2023-02-03T19:08:55.388Z,14.30
2023-02-03T19:11:26.963Z,12.67
2023-02-03T19:13:56.968Z,11.68
2023-02-03T19:16:26.753Z,10.70
2023-02-03T19:18:56.852Z,10.23
2023-02-03T19:21:27.047Z,11.20
2023-02-03T19:23:56.883Z,15.82
2023-02-03T19:26:28.588Z,9.15
2023-02-03T19:29:00.530Z,8.10
2023-02-03T19:31:30.320Z,8.23
2023-02-03T19:34:01.929Z,9.02
2023-02-03T19:36:32.526Z,10.30
2023-02-03T19:39:02.618Z,10.25
2023-02-03T19:41:36.862Z,9.32
2023-02-03T19:44:08.265Z,9.80
2023-02-03T19:46:39.173Z,9.93
2023-02-03T19:49:11.724Z,9.77
2023-02-03T19:51:43.214Z,9.20
2023-02-03T19:56:45.249Z,8.70
2023-02-03T19:59:16.341Z,8.55
2023-02-03T20:01:46.538Z,8.38
2023-02-03T20:04:16.360Z,8.20
2023-02-03T20:06:49.777Z,8.68
2023-02-03T20:09:19.746Z,8.55
2023-02-03T20:11:51.231Z,11.77
2023-02-03T20:16:51.616Z,8.48
2023-02-03T20:19:21.665Z,8.20
2023-02-03T20:21:54.025Z,9.90
2023-02-03T20:24:24.537Z,9.25
2023-02-03T20:26:59.612Z,12.52
2023-02-03T20:29:30.647Z,8.48
2023-02-03T20:32:01.375Z,9.05
2023-02-03T20:34:33.730Z,8.10
2023-02-03T20:37:03.925Z,8.75
2023-02-03T20:39:34.751Z,8.88
2023-02-03T20:42:15.412Z,10.25
2023-02-03T20:44:45.271Z,8.17
2023-02-03T20:47:19.026Z,8.50
2023-02-03T20:49:50.024Z,8.10
2023-02-03T20:52:23.389Z,8.50
2023-02-03T20:54:53.275Z,9.35
2023-02-03T20:57:27.847Z,7.97
2023-02-03T20:59:58.531Z,8.35
2023-02-03T21:02:52.272Z,8.52
2023-02-03T21:05:26.346Z,7.35
2023-02-03T21:07:56.729Z,10.98
2023-02-03T21:10:27.025Z,6.82
2023-02-03T21:13:00.997Z,8.15
2023-02-03T21:15:34.289Z,8.73
2023-02-03T21:18:04.916Z,11.43
2023-02-03T21:20:34.940Z,10.52
2023-02-03T21:23:11.013Z,9.02
2023-02-03T21:25:40.892Z,9.95
2023-02-03T21:28:25.879Z,10.95
2023-02-03T21:30:57.678Z,11.73
2023-02-03T21:33:37.130Z,10.52
2023-02-03T21:36:07.356Z,10.95
2023-02-03T21:38:38.278Z,10.95
2023-02-03T21:41:18.294Z,9.98
2023-02-03T21:43:52.861Z,10.05
2023-02-03T21:46:26.876Z,8.85
2023-02-03T21:49:00.176Z,6.88
2023-02-03T21:51:35.657Z,7.20
2023-02-03T21:54:24.622Z,7.63
2023-02-03T21:56:54.880Z,7.22
2023-02-03T21:59:30.241Z,7.72
2023-02-03T22:02:00.194Z,7.53
2023-02-03T22:04:31.201Z,8.32
2023-02-03T22:07:01.176Z,9.25
2023-02-03T22:09:31.302Z,7.55
2023-02-03T22:12:01.362Z,6.30
2023-02-03T22:14:34.272Z,5.72
2023-02-03T22:17:03.803Z,6.10
2023-02-03T22:19:33.951Z,6.07
2023-02-03T22:22:04.162Z,5.88
2023-02-03T22:24:33.878Z,6.70
2023-02-03T22:27:03.327Z,6.68
2023-02-03T22:29:41.816Z,7.40
2023-02-03T22:32:11.771Z,6.30
2023-02-03T22:34:44.264Z,5.63
2023-02-03T22:37:13.551Z,5.40
2023-02-03T22:39:43.361Z,4.25
2023-02-03T22:42:12.870Z,3.72
2023-02-03T22:44:44.350Z,3.40
2023-02-03T22:47:14.235Z,2.80
2023-02-03T22:49:44.087Z,2.95
2023-02-03T22:52:13.381Z,3.17
2023-02-03T22:54:43.244Z,3.30
2023-02-03T22:57:12.573Z,2.63
2023-02-03T22:59:43.972Z,2.90
2023-02-03T23:02:13.624Z,2.33
2023-02-03T23:04:43.326Z,2.88
2023-02-03T23:07:13.133Z,2.63
2023-02-03T23:09:42.872Z,2.23
2023-02-03T23:12:12.291Z,2.08
2023-02-03T23:14:42.010Z,2.03
2023-02-03T23:17:12.749Z,1.95
2023-02-03T23:22:11.480Z,1.65
2023-02-03T23:24:41.523Z,1.97
2023-02-03T23:27:10.926Z,1.40
2023-02-03T23:29:41.639Z,1.70
2023-02-03T23:32:12.385Z,1.33
2023-02-03T23:34:59.519Z,1.30
2023-02-03T23:37:28.831Z,0.80
2023-02-03T23:39:58.580Z,1.00
2023-02-03T23:42:27.815Z,1.13
2023-02-03T23:44:57.471Z,1.00
2023-02-03T23:47:28.186Z,1.63
2023-02-03T23:49:58.264Z,1.50
2023-02-03T23:52:28.218Z,1.45
2023-02-03T23:54:57.941Z,1.02
2023-02-03T23:57:27.731Z,1.15
2023-02-03T23:59:57.490Z,0.90
